createdAt,value
2019-05-13T00:00:57.548Z,29.63
2019-05-13T00:04:03.439Z,31.17
2019-05-13T00:07:06.443Z,31.20
2019-05-13T00:10:10.053Z,33.07
2019-05-13T00:13:14.778Z,32.33
2019-05-13T00:16:18.616Z,29.17
2019-05-13T00:19:23.349Z,28.20
2019-05-13T00:22:26.991Z,33.80
2019-05-13T00:25:30.617Z,33.57
2019-05-13T00:28:34.568Z,38.67
2019-05-13T00:31:38.091Z,33.63
2019-05-13T00:34:44.347Z,39.50
2019-05-13T00:37:46.834Z,35.93
2019-05-13T00:40:50.348Z,36.20
2019-05-13T00:43:53.980Z,32.70
2019-05-13T00:46:57.593Z,33.03
2019-05-13T00:50:03.479Z,30.53
2019-05-13T00:53:06.289Z,31.73
2019-05-13T00:56:09.794Z,30.50
2019-05-13T00:59:14.140Z,32.77
2019-05-13T01:02:17.997Z,26.97
2019-05-13T01:05:23.399Z,26.93
2019-05-13T01:08:26.797Z,31.53
2019-05-13T01:11:30.422Z,27.27
2019-05-13T01:14:34.290Z,30.27
2019-05-13T01:17:38.191Z,29.60
2019-05-13T01:20:43.673Z,26.70
2019-05-13T01:23:46.938Z,29.27
2019-05-13T01:26:50.471Z,27.27
2019-05-13T01:29:54.062Z,29.17
2019-05-13T01:32:57.634Z,30.53
2019-05-13T01:36:01.171Z,35.13
2019-05-13T01:39:06.697Z,29.60
2019-05-13T01:42:10.281Z,33.30
2019-05-13T01:45:14.315Z,28.77
2019-05-13T01:48:17.974Z,32.00
2019-05-13T01:51:23.855Z,31.33
2019-05-13T01:54:26.915Z,33.50
2019-05-13T01:57:30.425Z,30.10
2019-05-13T02:00:35.239Z,31.70
2019-05-13T02:03:39.300Z,29.33
2019-05-13T02:06:44.326Z,27.83
2019-05-13T02:09:48.232Z,29.87
2019-05-13T02:12:53.546Z,25.90
2019-05-13T02:15:57.182Z,28.03
2019-05-13T02:19:00.741Z,25.77
2019-05-13T02:22:04.363Z,23.17
2019-05-13T02:25:07.945Z,24.07
2019-05-13T02:28:13.797Z,24.90
2019-05-13T02:31:25.832Z,25.17
2019-05-13T02:34:23.251Z,23.63
2019-05-13T02:37:29.597Z,23.60
2019-05-13T02:40:33.071Z,23.17
2019-05-13T02:43:40.999Z,22.80
2019-05-13T02:46:44.335Z,23.20
2019-05-13T02:49:47.232Z,22.23
2019-05-13T02:52:53.157Z,20.07
2019-05-13T02:55:55.951Z,24.20
2019-05-13T02:58:59.473Z,23.50
2019-05-13T03:02:03.785Z,24.03
2019-05-13T03:05:08.086Z,24.50
2019-05-13T03:08:12.731Z,25.03
2019-05-13T03:11:16.489Z,24.83
2019-05-13T03:14:23.535Z,23.43
2019-05-13T03:17:27.053Z,20.73
2019-05-13T03:20:33.297Z,18.73
2019-05-13T03:23:36.543Z,20.27
2019-05-13T03:26:42.741Z,21.70
2019-05-13T03:29:45.651Z,16.27
2019-05-13T03:32:55.184Z,16.07
2019-05-13T03:35:56.129Z,17.80
2019-05-13T03:39:07.071Z,17.53
2019-05-13T03:42:04.907Z,13.63
2019-05-13T03:45:08.658Z,14.00
2019-05-13T03:48:12.412Z,14.27
2019-05-13T03:51:16.162Z,14.07
2019-05-13T03:54:22.732Z,17.40
2019-05-13T03:57:25.292Z,14.13
2019-05-13T04:00:32.058Z,14.20
2019-05-13T04:03:34.356Z,11.07
2019-05-13T04:06:37.847Z,15.93
2019-05-13T04:09:42.416Z,16.90
2019-05-13T04:12:46.521Z,12.10
2019-05-13T04:15:52.859Z,14.67
2019-05-13T04:18:55.299Z,14.47
2019-05-13T04:22:02.089Z,14.93
2019-05-13T04:25:04.883Z,18.63
2019-05-13T04:28:08.495Z,17.43
2019-05-13T04:31:14.039Z,17.57
2019-05-13T04:34:18.176Z,21.60
2019-05-13T04:37:22.453Z,20.80
2019-05-13T04:40:26.119Z,22.30
2019-05-13T04:43:33.812Z,22.40
2019-05-13T04:46:34.944Z,23.30
2019-05-13T04:49:38.601Z,22.50
2019-05-13T04:52:42.528Z,22.33
2019-05-13T04:55:46.380Z,24.57
2019-05-13T04:58:52.831Z,26.03
2019-05-13T05:02:04.643Z,24.93
2019-05-13T05:05:15.400Z,27.00
2019-05-13T05:08:37.111Z,28.70
2019-05-13T05:11:42.708Z,34.80
2019-05-13T05:15:04.869Z,43.87
2019-05-13T05:18:12.836Z,53.60
2019-05-13T05:21:27.053Z,51.57
2019-05-13T05:24:52.063Z,33.80
2019-05-13T05:28:02.819Z,25.50
2019-05-13T05:31:17.059Z,25.40
2019-05-13T05:34:37.094Z,22.90
2019-05-13T05:37:42.114Z,21.07
2019-05-13T05:40:47.173Z,22.77
2019-05-13T05:43:52.174Z,27.70
2019-05-13T05:46:57.431Z,26.27
2019-05-13T05:50:03.032Z,22.47
2019-05-13T05:53:06.870Z,23.50
2019-05-13T05:56:11.804Z,18.80
2019-05-13T05:59:15.354Z,17.80
2019-05-13T06:02:19.196Z,15.97
2019-05-13T06:05:22.801Z,17.00
2019-05-13T06:08:26.432Z,18.07
2019-05-13T06:11:31.233Z,14.93
2019-05-13T06:14:34.966Z,13.07
2019-05-13T06:17:38.517Z,10.23
2019-05-13T06:20:42.217Z,11.23
2019-05-13T06:23:45.736Z,12.03
2019-05-13T06:26:49.332Z,11.33
2019-05-13T06:29:53.122Z,11.73
2019-05-13T06:32:57.570Z,12.07
2019-05-13T06:36:01.331Z,10.97
2019-05-13T06:39:12.304Z,8.80
2019-05-13T06:42:16.015Z,10.00
2019-05-13T06:45:21.585Z,12.03
2019-05-13T06:48:24.718Z,8.47
2019-05-13T06:51:28.191Z,9.57
2019-05-13T06:54:32.969Z,8.57
2019-05-13T06:57:36.866Z,7.20
2019-05-13T07:00:42.742Z,6.63
2019-05-13T07:03:45.531Z,7.83
2019-05-13T07:06:51.490Z,9.53
2019-05-13T07:09:54.755Z,10.20
2019-05-13T07:12:58.596Z,8.53
2019-05-13T07:16:02.163Z,9.33
2019-05-13T07:19:05.681Z,9.17
2019-05-13T07:22:11.499Z,9.47
2019-05-13T07:25:14.666Z,12.97
2019-05-13T07:28:18.322Z,9.23
2019-05-13T07:31:21.943Z,9.47
2019-05-13T07:34:25.539Z,9.23
2019-05-13T07:37:29.066Z,11.27
2019-05-13T07:40:32.631Z,9.33
2019-05-13T07:43:36.172Z,13.40
2019-05-13T07:46:42.463Z,10.83
2019-05-13T07:49:44.895Z,12.53
2019-05-13T07:52:48.413Z,10.27
2019-05-13T07:55:52.580Z,9.63
2019-05-13T07:58:56.304Z,12.10
2019-05-13T08:02:02.150Z,8.37
2019-05-13T08:05:06.579Z,10.03
2019-05-13T08:08:11.718Z,9.67
2019-05-13T08:11:15.370Z,9.13
2019-05-13T08:14:18.912Z,9.60
2019-05-13T08:17:22.680Z,9.00
2019-05-13T08:20:26.290Z,10.70
2019-05-13T08:23:32.164Z,9.03
2019-05-13T08:26:38.179Z,9.83
2019-05-13T08:29:42.185Z,8.60
2019-05-13T08:32:47.368Z,11.63
2019-05-13T08:35:54.193Z,52.80
2019-05-13T08:38:57.476Z,11.80
2019-05-13T08:42:15.018Z,9.93
2019-05-13T08:45:09.077Z,11.90
2019-05-13T08:48:13.165Z,8.03
2019-05-13T08:51:17.030Z,8.87
2019-05-13T08:54:21.954Z,8.03
2019-05-13T08:57:26.348Z,14.77
2019-05-13T09:00:48.429Z,11.97
2019-05-13T09:03:52.667Z,11.23
2019-05-13T09:06:57.380Z,11.13
2019-05-13T09:10:02.031Z,11.60
2019-05-13T09:13:06.503Z,17.20
2019-05-13T09:16:13.155Z,11.60
2019-05-13T09:19:16.414Z,15.97
2019-05-13T09:22:21.476Z,13.00
2019-05-13T09:25:25.539Z,13.37
2019-05-13T09:28:29.469Z,14.93
2019-05-13T09:31:33.401Z,15.57
2019-05-13T09:34:37.339Z,16.53
2019-05-13T09:37:42.330Z,15.33
2019-05-13T09:40:46.684Z,13.17
2019-05-13T09:43:51.371Z,17.77
2019-05-13T09:46:55.715Z,16.20
2019-05-13T09:49:59.560Z,13.87
2019-05-13T09:53:03.497Z,16.67
2019-05-13T09:56:07.389Z,14.63
2019-05-13T09:59:11.873Z,11.87
2019-05-13T10:02:16.273Z,13.90
2019-05-13T10:05:22.367Z,16.20
2019-05-13T10:08:27.298Z,14.07
2019-05-13T10:11:32.754Z,15.37
2019-05-13T10:14:36.634Z,18.47
2019-05-13T10:17:42.745Z,14.23
2019-05-13T10:20:58.356Z,13.03
2019-05-13T10:24:02.354Z,19.80
2019-05-13T10:27:12.232Z,9.67
2019-05-13T10:30:16.379Z,10.77
2019-05-13T10:33:22.101Z,10.43
2019-05-13T10:36:26.273Z,9.30
2019-05-13T10:39:31.730Z,11.17
2019-05-13T10:42:35.562Z,10.27
2019-05-13T10:45:41.696Z,11.27
2019-05-13T10:48:45.053Z,9.07
2019-05-13T10:51:52.420Z,9.20
2019-05-13T10:54:55.081Z,6.83
2019-05-13T10:58:01.616Z,6.37
2019-05-13T11:01:06.397Z,8.63
2019-05-13T11:04:13.427Z,9.20
2019-05-13T11:07:16.462Z,6.90
2019-05-13T11:10:24.369Z,5.73
2019-05-13T11:13:45.787Z,4.67
2019-05-13T11:16:34.731Z,4.47
2019-05-13T11:19:38.678Z,5.03
2019-05-13T11:22:42.598Z,8.80
2019-05-13T11:25:46.700Z,6.83
2019-05-13T11:28:52.092Z,5.13
2019-05-13T11:31:56.282Z,12.70
2019-05-13T11:35:01.882Z,7.97
2019-05-13T11:38:07.176Z,8.10
2019-05-13T11:41:11.888Z,5.87
2019-05-13T11:44:17.027Z,6.47
2019-05-13T11:47:21.063Z,6.30
2019-05-13T11:50:26.616Z,8.10
2019-05-13T11:53:33.511Z,10.47
2019-05-13T11:56:36.068Z,6.20
2019-05-13T11:59:42.993Z,8.17
2019-05-13T12:02:50.955Z,5.90
2019-05-13T12:05:53.723Z,6.77
2019-05-13T12:08:57.017Z,6.37
2019-05-13T12:12:03.298Z,7.27
2019-05-13T12:15:35.576Z,10.87
2019-05-13T12:18:13.335Z,8.00
2019-05-13T12:21:17.935Z,7.13
2019-05-13T12:24:23.258Z,7.77
2019-05-13T12:27:31.586Z,9.77
2019-05-13T12:30:34.413Z,8.27
2019-05-13T12:33:38.561Z,6.93
2019-05-13T12:36:43.348Z,9.33
2019-05-13T12:39:47.741Z,6.03
2019-05-13T12:42:54.095Z,10.37
2019-05-13T12:46:02.069Z,7.53
2019-05-13T12:49:04.118Z,6.70
2019-05-13T12:52:08.150Z,14.00
2019-05-13T12:55:14.057Z,12.30
2019-05-13T12:58:18.159Z,8.90
2019-05-13T13:01:23.841Z,8.43
2019-05-13T13:04:27.517Z,11.77
2019-05-13T13:07:40.839Z,14.53
2019-05-13T13:10:42.325Z,7.80
2019-05-13T13:13:59.793Z,7.30
2019-05-13T13:16:54.000Z,9.67
2019-05-13T13:20:06.138Z,10.00
2019-05-13T13:23:04.843Z,11.17
2019-05-13T13:26:15.284Z,9.50
2019-05-13T13:29:15.441Z,7.97
2019-05-13T13:32:19.464Z,12.97
2019-05-13T13:35:25.397Z,9.93
2019-05-13T13:38:32.506Z,10.03
2019-05-13T13:41:35.662Z,11.50
2019-05-13T13:44:42.686Z,7.70
2019-05-13T13:47:56.837Z,10.30
2019-05-13T13:50:56.157Z,7.73
2019-05-13T13:53:59.915Z,11.27
2019-05-13T13:57:03.964Z,12.30
2019-05-13T14:00:26.387Z,14.30
2019-05-13T14:03:16.592Z,11.13
2019-05-13T14:07:22.850Z,9.23
2019-05-13T14:09:26.336Z,10.30
2019-05-13T14:12:34.149Z,9.67
2019-05-13T14:15:38.867Z,13.80
2019-05-13T14:18:42.833Z,10.53
2019-05-13T14:21:48.250Z,11.10
2019-05-13T14:24:52.217Z,8.93
2019-05-13T14:27:56.163Z,10.47
2019-05-13T14:31:01.887Z,7.67
2019-05-13T14:34:05.684Z,12.80
2019-05-13T14:37:11.989Z,11.77
2019-05-13T14:40:16.806Z,10.90
2019-05-13T14:43:22.952Z,9.20
2019-05-13T14:46:43.021Z,12.17
2019-05-13T14:49:32.613Z,11.83
2019-05-13T14:52:44.720Z,12.27
2019-05-13T14:55:48.851Z,13.57
2019-05-13T14:58:52.724Z,11.37
2019-05-13T15:01:56.601Z,10.97
2019-05-13T15:05:02.600Z,11.47
2019-05-13T15:08:06.074Z,12.20
2019-05-13T15:11:12.349Z,13.77
2019-05-13T15:14:15.580Z,11.73
2019-05-13T15:17:19.538Z,8.47
2019-05-13T15:20:25.102Z,12.37
2019-05-13T15:23:31.458Z,12.20
2019-05-13T15:26:34.567Z,9.07
2019-05-13T15:29:38.609Z,8.53
2019-05-13T15:32:42.541Z,10.53
2019-05-13T15:35:46.445Z,16.47
2019-05-13T15:38:51.982Z,14.40
2019-05-13T15:41:55.804Z,26.80
2019-05-13T15:45:01.894Z,14.10
2019-05-13T15:48:05.345Z,35.87
2019-05-13T15:51:11.276Z,36.97
2019-05-13T15:54:17.505Z,23.67
2019-05-13T15:57:21.338Z,19.37
2019-05-13T16:00:25.731Z,19.33
2019-05-13T16:03:29.593Z,17.00
2019-05-13T16:06:34.549Z,25.07
2019-05-13T16:09:39.039Z,27.20
2019-05-13T16:12:43.083Z,27.50
2019-05-13T16:15:47.061Z,11.17
2019-05-13T16:18:51.797Z,15.67
2019-05-13T16:21:55.620Z,13.27
2019-05-13T16:25:01.541Z,19.67
2019-05-13T16:28:05.094Z,14.27
2019-05-13T16:31:11.802Z,13.07
2019-05-13T16:34:14.504Z,15.27
2019-05-13T16:37:18.920Z,15.27
2019-05-13T16:40:23.889Z,11.20
2019-05-13T16:43:28.823Z,10.03
2019-05-13T16:46:32.676Z,11.87
2019-05-13T16:49:36.515Z,10.77
2019-05-13T16:52:41.845Z,13.17
2019-05-13T16:55:45.943Z,6.70
2019-05-13T16:58:52.016Z,10.17
2019-05-13T17:01:55.422Z,13.33
2019-05-13T17:05:01.271Z,6.97
2019-05-13T17:08:04.815Z,7.57
2019-05-13T17:11:08.713Z,10.60
2019-05-13T17:14:12.670Z,9.40
2019-05-13T17:17:16.538Z,9.43
2019-05-13T17:20:21.518Z,8.13
2019-05-13T17:23:26.557Z,8.97
2019-05-13T17:26:32.664Z,10.83
2019-05-13T17:29:36.566Z,10.67
2019-05-13T17:32:40.611Z,13.00
2019-05-13T17:35:44.888Z,12.00
2019-05-13T17:39:01.871Z,15.80
2019-05-13T17:42:08.115Z,16.43
2019-05-13T17:45:12.961Z,18.13
2019-05-13T17:48:28.504Z,10.33
2019-05-13T17:55:34.907Z,10.90
2019-05-13T18:02:44.184Z,10.77
2019-05-13T18:05:51.500Z,12.43
2019-05-13T18:08:55.416Z,11.63
2019-05-13T18:11:59.413Z,13.30
2019-05-13T18:15:05.034Z,12.33
2019-05-13T18:18:09.118Z,10.07
2019-05-13T18:21:13.013Z,11.13
2019-05-13T18:24:16.984Z,9.77
2019-05-13T18:27:22.138Z,12.90
2019-05-13T18:30:26.382Z,12.37
2019-05-13T18:33:32.012Z,18.03
2019-05-13T18:36:36.156Z,20.53
2019-05-13T18:39:41.615Z,24.37
2019-05-13T18:42:45.854Z,22.20
2019-05-13T18:45:51.893Z,24.90
2019-05-13T18:48:59.006Z,25.90
2019-05-13T18:52:00.934Z,26.10
2019-05-13T18:55:08.542Z,20.27
2019-05-13T18:58:42.233Z,21.40
2019-05-13T19:01:23.638Z,22.57
2019-05-13T19:04:27.609Z,26.17
2019-05-13T19:07:31.706Z,27.83
2019-05-13T19:10:35.793Z,26.57
2019-05-13T19:13:41.631Z,25.97
2019-05-13T19:16:45.538Z,28.83
2019-05-13T19:19:52.341Z,24.03
2019-05-13T19:22:56.238Z,25.50
2019-05-13T19:26:01.983Z,26.87
2019-05-13T19:29:05.718Z,25.83
2019-05-13T19:32:12.426Z,23.97
2019-05-13T19:35:24.109Z,25.10
2019-05-13T19:38:28.054Z,23.40
2019-05-13T19:41:34.100Z,23.37
2019-05-13T19:44:38.055Z,20.33
2019-05-13T19:51:10.601Z,24.90
2019-05-13T19:54:23.776Z,22.97
2019-05-13T19:57:27.744Z,20.10
2019-05-13T20:00:31.781Z,23.27
2019-05-13T20:03:35.813Z,21.80
2019-05-13T20:06:41.474Z,22.30
2019-05-13T20:09:45.312Z,25.43
2019-05-13T20:12:51.406Z,22.83
2019-05-13T20:16:01.415Z,31.43
2019-05-13T20:19:05.543Z,25.83
2019-05-13T20:22:11.540Z,25.43
2019-05-13T20:25:15.502Z,24.43
2019-05-13T20:28:19.530Z,33.20
2019-05-13T20:31:23.474Z,27.10
2019-05-13T20:34:27.355Z,29.47
2019-05-13T20:37:32.119Z,31.43
2019-05-13T20:40:37.338Z,29.27
2019-05-13T20:43:42.529Z,33.87
2019-05-13T20:46:48.124Z,31.37
2019-05-13T20:50:01.386Z,29.93
2019-05-13T20:52:57.555Z,33.10
2019-05-13T20:56:01.867Z,33.87
2019-05-13T20:59:05.913Z,30.93
2019-05-13T21:02:12.181Z,32.97
2019-05-13T21:05:15.480Z,34.70
2019-05-13T21:08:21.527Z,30.17
2019-05-13T21:11:24.924Z,39.43
2019-05-13T21:14:28.819Z,37.73
2019-05-13T21:17:34.130Z,36.27
2019-05-13T21:20:40.855Z,34.17
2019-05-13T21:23:44.259Z,34.10
2019-05-13T21:26:48.140Z,41.40
2019-05-13T21:29:52.059Z,35.50
2019-05-13T21:32:56.021Z,38.00
2019-05-13T21:36:01.744Z,38.47
2019-05-13T21:39:06.820Z,45.50
2019-05-13T21:42:11.459Z,43.87
2019-05-13T21:45:15.577Z,42.93
2019-05-13T21:48:21.541Z,37.20
2019-05-13T21:51:25.029Z,31.07
2019-05-13T21:54:33.018Z,26.07
2019-05-13T21:57:41.271Z,26.43
2019-05-13T22:00:46.370Z,22.80
2019-05-13T22:03:51.416Z,23.77
2019-05-13T22:06:55.912Z,23.50
2019-05-13T22:10:01.953Z,19.80
2019-05-13T22:13:09.007Z,19.87
2019-05-13T22:16:17.592Z,24.47
2019-05-13T22:19:22.294Z,19.73
2019-05-13T22:22:26.745Z,20.50
2019-05-13T22:25:30.890Z,18.00
2019-05-13T22:28:34.834Z,20.90
2019-05-13T22:31:39.019Z,17.93
2019-05-13T22:34:43.147Z,20.50
2019-05-13T22:37:47.170Z,17.73
2019-05-13T22:40:52.102Z,17.20
2019-05-13T22:43:58.886Z,17.63
2019-05-13T22:47:02.586Z,24.53
2019-05-13T22:50:11.388Z,22.27
2019-05-13T22:53:15.727Z,21.70
2019-05-13T22:56:21.852Z,19.90
2019-05-13T22:59:26.931Z,24.53
2019-05-13T23:02:33.512Z,23.50
2019-05-13T23:05:37.621Z,25.77
2019-05-13T23:08:44.743Z,27.03
2019-05-13T23:11:53.294Z,30.00
2019-05-13T23:15:03.550Z,22.33
2019-05-13T23:18:04.701Z,23.60
2019-05-13T23:21:11.730Z,22.17
2019-05-13T23:24:15.794Z,23.87
2019-05-13T23:27:21.977Z,23.50
2019-05-13T23:30:26.486Z,26.27
2019-05-13T23:33:31.379Z,24.73
2019-05-13T23:36:37.718Z,23.53
2019-05-13T23:39:42.732Z,22.20
2019-05-13T23:42:46.889Z,21.57
2019-05-13T23:45:51.332Z,24.60
2019-05-13T23:48:58.007Z,16.00
2019-05-13T23:52:02.509Z,22.50
2019-05-13T23:55:07.690Z,17.27
2019-05-13T23:58:12.223Z,18.03
